createdAt,value
2017-05-15T00:00:18.651Z,99.99
2017-05-15T00:10:07.027Z,99.99
2017-05-15T00:20:07.026Z,99.99
2017-05-15T00:40:07.027Z,99.99
2017-05-15T01:20:07.031Z,99.99
2017-05-15T01:40:13.263Z,99.99
2017-05-15T02:00:07.027Z,99.99
2017-05-15T02:10:07.011Z,99.99
2017-05-15T02:30:09.113Z,99.99
2017-05-15T02:40:07.004Z,99.99
2017-05-15T02:50:07.011Z,99.99
2017-05-15T03:10:10.824Z,99.99
2017-05-15T03:20:07.018Z,99.99
2017-05-15T03:30:07.010Z,99.99
2017-05-15T03:40:07.009Z,99.99
2017-05-15T03:50:07.000Z,99.99
2017-05-15T04:00:10.122Z,99.99
2017-05-15T04:10:18.277Z,99.99
2017-05-15T04:20:09.086Z,99.99
2017-05-15T04:30:06.994Z,99.99
2017-05-15T04:40:18.380Z,99.99
2017-05-15T05:00:07.016Z,99.99
2017-05-15T05:40:12.783Z,99.99
2017-05-15T06:00:09.145Z,99.99
2017-05-15T06:10:08.084Z,99.99
2017-05-15T06:20:06.982Z,99.99
2017-05-15T06:30:06.988Z,99.99
2017-05-15T06:40:08.024Z,76.5
2017-05-15T06:50:06.995Z,54.32
2017-05-15T07:00:09.081Z,46.29
2017-05-15T07:10:06.994Z,40.27
2017-05-15T07:20:11.453Z,36.45
2017-05-15T07:30:10.105Z,31.93
2017-05-15T07:40:07.002Z,30.18
2017-05-15T07:50:07.019Z,27.35
2017-05-15T08:00:07.032Z,23.19
2017-05-15T08:10:07.013Z,22.88
2017-05-15T08:20:09.031Z,24.55
2017-05-15T08:30:07.131Z,25.92
2017-05-15T08:40:12.052Z,27.34
2017-05-15T09:30:07.059Z,47.6
2017-05-15T09:40:07.048Z,47.31
2017-05-15T10:00:13.074Z,55.6
2017-05-15T10:10:17.302Z,55.41
2017-05-15T10:30:07.045Z,51.39
2017-05-15T10:40:07.056Z,55.09
2017-05-15T11:00:12.636Z,48.08
2017-05-15T11:20:07.048Z,47.05
2017-05-15T11:40:18.875Z,47.44
2017-05-15T11:50:07.070Z,46.88
2017-05-15T12:00:07.091Z,45.34
2017-05-15T12:20:07.068Z,45.79
2017-05-15T12:30:12.287Z,47.34
2017-05-15T12:40:11.987Z,48.61
2017-05-15T12:50:07.118Z,46.59
2017-05-15T13:00:12.178Z,47.75
2017-05-15T13:10:07.071Z,44.27
2017-05-15T13:30:07.087Z,46.44
2017-05-15T13:50:08.090Z,44.39
2017-05-15T14:00:07.089Z,45.28
2017-05-15T14:10:07.101Z,45.18
2017-05-15T15:10:07.109Z,38.91
2017-05-15T15:30:07.118Z,37.63
2017-05-15T15:40:07.102Z,39.18
2017-05-15T15:50:07.103Z,40.92
2017-05-15T16:00:07.103Z,39.57
2017-05-15T16:10:07.134Z,38.12
2017-05-15T16:20:07.137Z,38.51
2017-05-15T16:30:07.112Z,39.47
2017-05-15T16:40:07.110Z,39.37
2017-05-15T16:50:07.161Z,39.06
2017-05-15T17:00:07.118Z,38.95
2017-05-15T17:10:07.158Z,38.37
2017-05-15T17:20:07.122Z,38.37
2017-05-15T17:30:07.124Z,38.06
2017-05-15T17:40:07.201Z,40.19
2017-05-15T17:50:07.130Z,41.03
2017-05-15T18:00:07.175Z,42.46
2017-05-15T18:10:07.167Z,45.03
2017-05-15T18:20:07.145Z,47.7
2017-05-15T18:30:07.174Z,47.49
2017-05-15T18:40:07.143Z,49.29
2017-05-15T18:50:07.182Z,51.37
2017-05-15T19:00:07.180Z,54.33
2017-05-15T19:10:07.576Z,58.62
2017-05-15T19:20:07.190Z,62.07
2017-05-15T19:30:07.325Z,60.89
2017-05-15T19:40:07.231Z,64.15
2017-05-15T19:50:07.833Z,65.84
2017-05-15T20:00:07.118Z,67.09
2017-05-15T20:10:07.137Z,67.72
2017-05-15T20:20:07.145Z,70.79
2017-05-15T20:30:07.181Z,71.14
2017-05-15T20:40:07.850Z,70.95
2017-05-15T20:50:07.146Z,71.52
2017-05-15T21:00:07.181Z,69.7
2017-05-15T21:10:07.113Z,68.3
2017-05-15T21:20:07.122Z,68.59
2017-05-15T21:30:07.110Z,70.6
2017-05-15T21:40:07.110Z,69.68
2017-05-15T21:50:07.109Z,71.02
2017-05-15T22:00:07.143Z,70.73
2017-05-15T22:10:07.119Z,67.47
2017-05-15T22:20:07.122Z,66.8
2017-05-15T22:30:07.128Z,66.71
2017-05-15T22:40:07.145Z,65.17
2017-05-15T22:50:07.201Z,65.78
2017-05-15T23:00:07.123Z,65.88
2017-05-15T23:10:07.100Z,65.49
2017-05-15T23:20:07.098Z,64.72
2017-05-15T23:30:07.109Z,64.43
2017-05-15T23:40:07.120Z,65.08
2017-05-15T23:50:07.126Z,64.53
